sensor_id;sensor_type;location;lat;lon;timestamp;pressure;altitude;pressure_sealevel;temperature;humidity
42433;BME280;28071;48.232;20.668;2023-05-09T00:01:11;100492.00;;;5.06;100.00
42433;BME280;28071;48.232;20.668;2023-05-09T00:06:14;100492.38;;;5.11;100.00
42433;BME280;28071;48.232;20.668;2023-05-09T00:11:15;100484.19;;;4.88;100.00
42433;BME280;28071;48.232;20.668;2023-05-09T00:16:16;100487.13;;;4.77;100.00
42433;BME280;28071;48.232;20.668;2023-05-09T00:21:17;100478.00;;;4.63;100.00
42433;BME280;28071;48.232;20.668;2023-05-09T00:26:18;100488.28;;;4.48;100.00
42433;BME280;28071;48.232;20.668;2023-05-09T00:31:19;100480.78;;;4.35;100.00
42433;BME280;28071;48.232;20.668;2023-05-09T00:36:20;100471.97;;;4.53;100.00
42433;BME280;28071;48.232;20.668;2023-05-09T00:41:20;100467.00;;;4.41;100.00
42433;BME280;28071;48.232;20.668;2023-05-09T00:46:21;100446.88;;;4.14;100.00
42433;BME280;28071;48.232;20.668;2023-05-09T00:51:22;100468.75;;;4.15;100.00
42433;BME280;28071;48.232;20.668;2023-05-09T00:56:23;100445.78;;;3.99;100.00
42433;BME280;28071;48.232;20.668;2023-05-09T01:01:23;100476.59;;;4.07;100.00
42433;BME280;28071;48.232;20.668;2023-05-09T01:22:42;100472.28;;;3.80;100.00
42433;BME280;28071;48.232;20.668;2023-05-09T01:27:52;100472.97;;;3.82;100.00
42433;BME280;28071;48.232;20.668;2023-05-09T01:32:59;100442.22;;;3.82;100.00
42433;BME280;28071;48.232;20.668;2023-05-09T01:38:05;100453.03;;;3.79;100.00
42433;BME280;28071;48.232;20.668;2023-05-09T01:43:08;100435.53;;;3.52;100.00
42433;BME280;28071;48.232;20.668;2023-05-09T01:48:10;100464.19;;;3.55;100.00
42433;BME280;28071;48.232;20.668;2023-05-09T01:53:12;100460.63;;;3.47;100.00
42433;BME280;28071;48.232;20.668;2023-05-09T01:58:17;100456.56;;;3.52;100.00
42433;BME280;28071;48.232;20.668;2023-05-09T02:03:19;100464.03;;;3.57;100.00
42433;BME280;28071;48.232;20.668;2023-05-09T02:08:20;100462.56;;;3.62;100.00
42433;BME280;28071;48.232;20.668;2023-05-09T02:13:21;100464.84;;;3.57;100.00
42433;BME280;28071;48.232;20.668;2023-05-09T02:18:21;100421.56;;;3.34;100.00
42433;BME280;28071;48.232;20.668;2023-05-09T02:23:22;100454.59;;;3.37;100.00
42433;BME280;28071;48.232;20.668;2023-05-09T02:28:24;100411.72;;;3.18;100.00
42433;BME280;28071;48.232;20.668;2023-05-09T02:33:26;100452.88;;;3.45;100.00
42433;BME280;28071;48.232;20.668;2023-05-09T02:38:28;100457.41;;;3.53;100.00
42433;BME280;28071;48.232;20.668;2023-05-09T02:43:28;100447.66;;;3.63;100.00
42433;BME280;28071;48.232;20.668;2023-05-09T02:48:29;100459.34;;;3.51;100.00
42433;BME280;28071;48.232;20.668;2023-05-09T02:53:29;100462.81;;;3.69;100.00
42433;BME280;28071;48.232;20.668;2023-05-09T02:58:30;100460.25;;;3.77;100.00
42433;BME280;28071;48.232;20.668;2023-05-09T03:03:30;100437.78;;;3.65;100.00
42433;BME280;28071;48.232;20.668;2023-05-09T03:08:33;100456.03;;;3.84;100.00
42433;BME280;28071;48.232;20.668;2023-05-09T03:13:33;100452.50;;;3.76;100.00
42433;BME280;28071;48.232;20.668;2023-05-09T03:18:33;100464.75;;;3.85;100.00
42433;BME280;28071;48.232;20.668;2023-05-09T03:23:34;100466.19;;;3.97;100.00
42433;BME280;28071;48.232;20.668;2023-05-09T03:28:34;100462.72;;;3.97;100.00
42433;BME280;28071;48.232;20.668;2023-05-09T03:33:35;100459.63;;;4.01;100.00
42433;BME280;28071;48.232;20.668;2023-05-09T03:38:35;100465.69;;;4.20;100.00
42433;BME280;28071;48.232;20.668;2023-05-09T03:43:36;100462.34;;;4.35;100.00
42433;BME280;28071;48.232;20.668;2023-05-09T03:48:36;100470.78;;;4.39;100.00
42433;BME280;28071;48.232;20.668;2023-05-09T03:53:36;100484.16;;;4.28;100.00
42433;BME280;28071;48.232;20.668;2023-05-09T03:58:37;100466.28;;;4.13;100.00
42433;BME280;28071;48.232;20.668;2023-05-09T04:03:37;100474.09;;;4.23;100.00
42433;BME280;28071;48.232;20.668;2023-05-09T04:08:38;100467.56;;;4.27;100.00
42433;BME280;28071;48.232;20.668;2023-05-09T04:13:38;100482.16;;;4.22;100.00
42433;BME280;28071;48.232;20.668;2023-05-09T04:18:39;100477.69;;;4.40;100.00
42433;BME280;28071;48.232;20.668;2023-05-09T04:23:41;100479.22;;;4.51;100.00
42433;BME280;28071;48.232;20.668;2023-05-09T04:28:42;100476.97;;;4.56;100.00
42433;BME280;28071;48.232;20.668;2023-05-09T04:33:43;100469.56;;;4.59;100.00
42433;BME280;28071;48.232;20.668;2023-05-09T04:38:43;100471.16;;;4.78;100.00
42433;BME280;28071;48.232;20.668;2023-05-09T04:43:44;100476.53;;;5.03;100.00
42433;BME280;28071;48.232;20.668;2023-05-09T04:48:45;100487.88;;;5.03;100.00
42433;BME280;28071;48.232;20.668;2023-05-09T04:53:45;100488.63;;;5.21;100.00
42433;BME280;28071;48.232;20.668;2023-05-09T04:58:46;100491.59;;;5.26;100.00
42433;BME280;28071;48.232;20.668;2023-05-09T05:03:46;100492.81;;;5.48;100.00
42433;BME280;28071;48.232;20.668;2023-05-09T05:08:46;100490.03;;;5.58;100.00
42433;BME280;28071;48.232;20.668;2023-05-09T05:13:47;100486.44;;;5.75;100.00
42433;BME280;28071;48.232;20.668;2023-05-09T05:18:47;100492.06;;;5.97;100.00
42433;BME280;28071;48.232;20.668;2023-05-09T05:23:48;100483.50;;;6.27;100.00
42433;BME280;28071;48.232;20.668;2023-05-09T05:28:48;100497.00;;;6.40;100.00
42433;BME280;28071;48.232;20.668;2023-05-09T05:33:54;100496.28;;;6.71;100.00
42433;BME280;28071;48.232;20.668;2023-05-09T05:38:54;100487.16;;;6.90;100.00
42433;BME280;28071;48.232;20.668;2023-05-09T05:43:55;100489.34;;;7.17;100.00
42433;BME280;28071;48.232;20.668;2023-05-09T05:48:55;100489.34;;;7.26;100.00
42433;BME280;28071;48.232;20.668;2023-05-09T05:53:56;100491.34;;;7.46;98.72
42433;BME280;28071;48.232;20.668;2023-05-09T05:58:56;100476.41;;;7.54;97.40
42433;BME280;28071;48.232;20.668;2023-05-09T06:03:56;100495.97;;;7.98;93.10
42433;BME280;28071;48.232;20.668;2023-05-09T06:08:57;100491.28;;;8.23;92.16
42433;BME280;28071;48.232;20.668;2023-05-09T06:13:57;100489.09;;;8.50;90.28
42433;BME280;28071;48.232;20.668;2023-05-09T06:18:58;100483.34;;;8.76;89.56
42433;BME280;28071;48.232;20.668;2023-05-09T06:23:58;100474.94;;;9.02;86.79
42433;BME280;28071;48.232;20.668;2023-05-09T06:28:58;100480.13;;;9.25;85.19
42433;BME280;28071;48.232;20.668;2023-05-09T06:33:59;100491.09;;;9.58;83.34
42433;BME280;28071;48.232;20.668;2023-05-09T06:39:00;100484.41;;;9.62;83.07
42433;BME280;28071;48.232;20.668;2023-05-09T06:44:00;100486.56;;;9.94;81.50
42433;BME280;28071;48.232;20.668;2023-05-09T06:49:01;100486.06;;;9.84;81.64
42433;BME280;28071;48.232;20.668;2023-05-09T06:54:02;100483.13;;;10.22;80.44
42433;BME280;28071;48.232;20.668;2023-05-09T06:59:02;100484.53;;;10.39;79.79
42433;BME280;28071;48.232;20.668;2023-05-09T07:04:03;100484.72;;;10.72;79.25
42433;BME280;28071;48.232;20.668;2023-05-09T07:09:03;100459.09;;;10.99;77.51
42433;BME280;28071;48.232;20.668;2023-05-09T07:14:04;100466.84;;;11.55;74.69
42433;BME280;28071;48.232;20.668;2023-05-09T07:19:04;100477.84;;;12.27;70.03
42433;BME280;28071;48.232;20.668;2023-05-09T07:24:05;100464.28;;;12.55;69.31
42433;BME280;28071;48.232;20.668;2023-05-09T07:29:05;100462.13;;;12.90;65.49
42433;BME280;28071;48.232;20.668;2023-05-09T07:34:06;100462.84;;;13.30;62.43
42433;BME280;28071;48.232;20.668;2023-05-09T07:39:06;100447.97;;;13.41;61.39
42433;BME280;28071;48.232;20.668;2023-05-09T07:44:07;100440.28;;;13.82;58.59
42433;BME280;28071;48.232;20.668;2023-05-09T07:49:08;100445.00;;;14.12;59.31
42433;BME280;28071;48.232;20.668;2023-05-09T07:54:09;100448.31;;;14.32;57.51
42433;BME280;28071;48.232;20.668;2023-05-09T07:59:09;100440.44;;;14.62;59.07
42433;BME280;28071;48.232;20.668;2023-05-09T08:04:11;100432.88;;;14.78;55.05
42433;BME280;28071;48.232;20.668;2023-05-09T08:09:11;100381.19;;;14.59;54.78
42433;BME280;28071;48.232;20.668;2023-05-09T08:14:12;100403.56;;;14.83;54.57
42433;BME280;28071;48.232;20.668;2023-05-09T08:19:12;100419.78;;;15.18;53.73
42433;BME280;28071;48.232;20.668;2023-05-09T08:24:13;100398.00;;;15.44;52.33
42433;BME280;28071;48.232;20.668;2023-05-09T08:29:13;100405.63;;;15.59;54.56
42433;BME280;28071;48.232;20.668;2023-05-09T08:34:14;100415.28;;;16.14;52.91
42433;BME280;28071;48.232;20.668;2023-05-09T08:39:15;100408.06;;;15.61;51.56
42433;BME280;28071;48.232;20.668;2023-05-09T08:44:15;100407.13;;;16.20;51.14
42433;BME280;28071;48.232;20.668;2023-05-09T08:49:16;100399.53;;;16.41;50.17
42433;BME280;28071;48.232;20.668;2023-05-09T08:54:17;100382.44;;;16.82;44.79
42433;BME280;28071;48.232;20.668;2023-05-09T08:59:18;100389.34;;;17.35;43.82
42433;BME280;28071;48.232;20.668;2023-05-09T09:04:19;100390.69;;;17.66;41.60
42433;BME280;28071;48.232;20.668;2023-05-09T09:09:20;100382.97;;;17.69;40.70
42433;BME280;28071;48.232;20.668;2023-05-09T09:14:25;100352.56;;;17.69;39.98
42433;BME280;28071;48.232;20.668;2023-05-09T09:19:29;100366.34;;;18.06;41.37
42433;BME280;28071;48.232;20.668;2023-05-09T09:24:30;100368.09;;;18.56;37.80
42433;BME280;28071;48.232;20.668;2023-05-09T09:29:32;100376.97;;;18.56;37.19
42433;BME280;28071;48.232;20.668;2023-05-09T09:34:33;100381.69;;;18.27;37.79
42433;BME280;28071;48.232;20.668;2023-05-09T09:39:33;100375.03;;;17.46;39.11
42433;BME280;28071;48.232;20.668;2023-05-09T09:44:33;100368.34;;;17.65;38.44
42433;BME280;28071;48.232;20.668;2023-05-09T09:49:34;100367.44;;;18.27;37.10
42433;BME280;28071;48.232;20.668;2023-05-09T09:54:35;100359.94;;;18.51;37.00
42433;BME280;28071;48.232;20.668;2023-05-09T09:59:35;100353.72;;;19.43;35.71
42433;BME280;28071;48.232;20.668;2023-05-09T10:04:37;100350.38;;;19.95;34.45
42433;BME280;28071;48.232;20.668;2023-05-09T10:09:38;100345.78;;;20.01;33.98
42433;BME280;28071;48.232;20.668;2023-05-09T10:14:40;100332.56;;;20.46;34.16
42433;BME280;28071;48.232;20.668;2023-05-09T10:19:43;100331.78;;;20.51;32.39
42433;BME280;28071;48.232;20.668;2023-05-09T10:24:55;100342.50;;;21.14;30.50
42433;BME280;28071;48.232;20.668;2023-05-09T10:30:07;100350.06;;;21.01;31.73
42433;BME280;28071;48.232;20.668;2023-05-09T10:35:10;100334.34;;;20.98;31.53
42433;BME280;28071;48.232;20.668;2023-05-09T10:40:13;100314.78;;;20.03;31.56
42433;BME280;28071;48.232;20.668;2023-05-09T10:45:14;100341.84;;;20.13;31.84
42433;BME280;28071;48.232;20.668;2023-05-09T10:50:16;100314.78;;;20.56;31.98
42433;BME280;28071;48.232;20.668;2023-05-09T10:55:16;100320.13;;;21.54;31.38
42433;BME280;28071;48.232;20.668;2023-05-09T11:00:23;100310.91;;;21.70;29.27
42433;BME280;28071;48.232;20.668;2023-05-09T11:05:24;100289.28;;;22.50;28.62
42433;BME280;28071;48.232;20.668;2023-05-09T11:10:24;100293.31;;;21.47;30.25
42433;BME280;28071;48.232;20.668;2023-05-09T11:15:25;100301.94;;;21.09;30.94
42433;BME280;28071;48.232;20.668;2023-05-09T11:20:32;100283.06;;;21.39;30.90
42433;BME280;28071;48.232;20.668;2023-05-09T11:25:33;100287.31;;;21.15;31.30
42433;BME280;28071;48.232;20.668;2023-05-09T11:30:41;100290.72;;;20.54;32.30
42433;BME280;28071;48.232;20.668;2023-05-09T11:35:42;100285.38;;;20.17;32.64
42433;BME280;28071;48.232;20.668;2023-05-09T11:40:43;100280.16;;;19.95;32.53
42433;BME280;28071;48.232;20.668;2023-05-09T11:45:45;100283.19;;;19.61;32.79
42433;BME280;28071;48.232;20.668;2023-05-09T11:50:46;100270.66;;;19.50;33.98
42433;BME280;28071;48.232;20.668;2023-05-09T11:55:47;100262.34;;;19.20;34.28
42433;BME280;28071;48.232;20.668;2023-05-09T12:00:47;100271.19;;;19.15;34.78
42433;BME280;28071;48.232;20.668;2023-05-09T12:05:48;100261.06;;;19.32;34.55
42433;BME280;28071;48.232;20.668;2023-05-09T12:10:49;100256.75;;;20.94;32.15
42433;BME280;28071;48.232;20.668;2023-05-09T12:15:49;100259.09;;;20.55;32.08
42433;BME280;28071;48.232;20.668;2023-05-09T12:20:51;100249.16;;;21.06;30.63
42433;BME280;28071;48.232;20.668;2023-05-09T12:25:53;100245.31;;;21.83;30.77
42433;BME280;28071;48.232;20.668;2023-05-09T12:30:54;100237.25;;;20.76;31.30
42433;BME280;28071;48.232;20.668;2023-05-09T12:36:03;100239.66;;;20.63;32.99
42433;BME280;28071;48.232;20.668;2023-05-09T12:41:09;100214.81;;;19.98;31.49
42433;BME280;28071;48.232;20.668;2023-05-09T12:46:09;100216.94;;;20.59;31.90
42433;BME280;28071;48.232;20.668;2023-05-09T12:51:10;100215.28;;;21.80;29.77
42433;BME280;28071;48.232;20.668;2023-05-09T12:56:15;100197.66;;;21.93;29.44
42433;BME280;28071;48.232;20.668;2023-05-09T13:01:17;100212.59;;;22.89;28.57
42433;BME280;28071;48.232;20.668;2023-05-09T13:06:18;100209.16;;;22.29;27.91
42433;BME280;28071;48.232;20.668;2023-05-09T13:11:20;100209.44;;;21.47;29.16
42433;BME280;28071;48.232;20.668;2023-05-09T13:16:20;100198.03;;;21.15;29.71
42433;BME280;28071;48.232;20.668;2023-05-09T13:21:21;100195.06;;;21.06;30.39
42433;BME280;28071;48.232;20.668;2023-05-09T13:26:21;100191.81;;;20.84;29.85
42433;BME280;28071;48.232;20.668;2023-05-09T13:31:22;100193.19;;;20.91;30.40
42433;BME280;28071;48.232;20.668;2023-05-09T13:36:23;100179.94;;;20.74;31.17
42433;BME280;28071;48.232;20.668;2023-05-09T13:41:23;100181.81;;;20.59;30.19
42433;BME280;28071;48.232;20.668;2023-05-09T13:46:24;100181.97;;;20.21;31.43
42433;BME280;28071;48.232;20.668;2023-05-09T13:51:24;100183.97;;;20.52;30.81
42433;BME280;28071;48.232;20.668;2023-05-09T13:56:25;100180.31;;;20.10;31.47
42433;BME280;28071;48.232;20.668;2023-05-09T14:01:25;100160.63;;;20.20;31.31
42433;BME280;28071;48.232;20.668;2023-05-09T14:06:26;100156.28;;;20.14;31.64
42433;BME280;28071;48.232;20.668;2023-05-09T14:11:28;100164.13;;;20.15;31.42
42433;BME280;28071;48.232;20.668;2023-05-09T14:16:28;100155.88;;;20.88;29.92
42433;BME280;28071;48.232;20.668;2023-05-09T14:21:28;100162.53;;;20.30;30.56
42433;BME280;28071;48.232;20.668;2023-05-09T14:26:29;100152.94;;;19.81;30.67
42433;BME280;28071;48.232;20.668;2023-05-09T14:31:30;100154.75;;;19.65;32.17
42433;BME280;28071;48.232;20.668;2023-05-09T14:36:31;100150.88;;;20.04;30.28
42433;BME280;28071;48.232;20.668;2023-05-09T14:41:31;100147.59;;;20.02;30.64
42433;BME280;28071;48.232;20.668;2023-05-09T14:46:32;100146.97;;;19.79;30.66
42433;BME280;28071;48.232;20.668;2023-05-09T14:51:32;100143.63;;;19.57;31.54
42433;BME280;28071;48.232;20.668;2023-05-09T14:56:33;100136.38;;;19.62;31.05
42433;BME280;28071;48.232;20.668;2023-05-09T15:01:33;100134.72;;;20.34;30.15
42433;BME280;28071;48.232;20.668;2023-05-09T15:06:34;100129.91;;;20.52;29.35
42433;BME280;28071;48.232;20.668;2023-05-09T15:11:34;100108.56;;;20.70;29.57
42433;BME280;28071;48.232;20.668;2023-05-09T15:16:35;100113.66;;;20.26;29.48
42433;BME280;28071;48.232;20.668;2023-05-09T15:21:35;100110.09;;;20.15;30.21
42433;BME280;28071;48.232;20.668;2023-05-09T15:26:36;100101.69;;;19.91;30.59
42433;BME280;28071;48.232;20.668;2023-05-09T15:31:36;100101.38;;;19.83;30.54
42433;BME280;28071;48.232;20.668;2023-05-09T15:36:37;100096.84;;;19.36;31.29
42433;BME280;28071;48.232;20.668;2023-05-09T15:41:37;100093.25;;;19.20;31.62
42433;BME280;28071;48.232;20.668;2023-05-09T15:46:38;100099.16;;;18.80;31.80
42433;BME280;28071;48.232;20.668;2023-05-09T15:51:38;100091.81;;;18.70;31.66
42433;BME280;28071;48.232;20.668;2023-05-09T15:56:39;100087.41;;;18.59;31.62
42433;BME280;28071;48.232;20.668;2023-05-09T16:01:39;100074.91;;;18.48;31.86
42433;BME280;28071;48.232;20.668;2023-05-09T16:06:40;100072.97;;;18.43;32.73
42433;BME280;28071;48.232;20.668;2023-05-09T16:11:41;100070.16;;;18.28;32.89
42433;BME280;28071;48.232;20.668;2023-05-09T16:16:41;100066.91;;;18.26;33.31
42433;BME280;28071;48.232;20.668;2023-05-09T16:21:44;100042.03;;;17.87;33.66
42433;BME280;28071;48.232;20.668;2023-05-09T16:26:45;100058.09;;;17.77;34.17
42433;BME280;28071;48.232;20.668;2023-05-09T16:31:45;100056.31;;;17.43;35.45
42433;BME280;28071;48.232;20.668;2023-05-09T16:36:46;100057.59;;;17.19;36.18
42433;BME280;28071;48.232;20.668;2023-05-09T16:41:46;100056.72;;;17.13;36.75
42433;BME280;28071;48.232;20.668;2023-05-09T16:46:47;100049.03;;;16.83;36.74
42433;BME280;28071;48.232;20.668;2023-05-09T16:51:47;100043.34;;;16.80;37.59
42433;BME280;28071;48.232;20.668;2023-05-09T16:56:48;100036.03;;;16.75;38.03
42433;BME280;28071;48.232;20.668;2023-05-09T17:01:48;99995.25;;;16.45;38.93
42433;BME280;28071;48.232;20.668;2023-05-09T17:06:49;100006.56;;;16.30;39.56
42433;BME280;28071;48.232;20.668;2023-05-09T17:11:50;100034.31;;;16.35;39.95
42433;BME280;28071;48.232;20.668;2023-05-09T17:16:51;100035.72;;;16.09;39.95
42433;BME280;28071;48.232;20.668;2023-05-09T17:21:51;100029.94;;;16.01;40.46
42433;BME280;28071;48.232;20.668;2023-05-09T17:26:55;100031.16;;;15.93;41.94
42433;BME280;28071;48.232;20.668;2023-05-09T17:31:56;100029.97;;;15.72;44.31
42433;BME280;28071;48.232;20.668;2023-05-09T17:36:59;100029.94;;;15.44;47.62
42433;BME280;28071;48.232;20.668;2023-05-09T17:42:04;100034.66;;;15.02;51.23
42433;BME280;28071;48.232;20.668;2023-05-09T17:47:05;100037.91;;;14.45;53.33
42433;BME280;28071;48.232;20.668;2023-05-09T17:52:06;100024.44;;;13.98;55.43
42433;BME280;28071;48.232;20.668;2023-05-09T17:57:07;100042.09;;;13.69;57.46
42433;BME280;28071;48.232;20.668;2023-05-09T18:02:07;100047.59;;;13.19;59.77
42433;BME280;28071;48.232;20.668;2023-05-09T18:07:08;100043.56;;;12.92;59.73
42433;BME280;28071;48.232;20.668;2023-05-09T18:12:08;100037.22;;;12.43;62.85
42433;BME280;28071;48.232;20.668;2023-05-09T18:17:09;100044.88;;;12.08;63.90
42433;BME280;28071;48.232;20.668;2023-05-09T18:22:09;100047.09;;;11.73;65.39
42433;BME280;28071;48.232;20.668;2023-05-09T18:27:10;100049.88;;;11.46;66.47
42433;BME280;28071;48.232;20.668;2023-05-09T18:32:10;100059.75;;;11.32;67.01
42433;BME280;28071;48.232;20.668;2023-05-09T18:37:12;100060.06;;;11.04;69.25
42433;BME280;28071;48.232;20.668;2023-05-09T18:42:13;100056.38;;;10.99;72.20
42433;BME280;28071;48.232;20.668;2023-05-09T18:47:13;100056.84;;;10.43;72.63
42433;BME280;28071;48.232;20.668;2023-05-09T18:52:14;100048.56;;;10.18;73.67
42433;BME280;28071;48.232;20.668;2023-05-09T18:57:17;100061.63;;;9.99;75.50
42433;BME280;28071;48.232;20.668;2023-05-09T19:02:19;100075.13;;;9.91;75.54
42433;BME280;28071;48.232;20.668;2023-05-09T19:07:21;100071.56;;;9.71;77.09
42433;BME280;28071;48.232;20.668;2023-05-09T19:12:22;100068.06;;;9.64;77.40
42433;BME280;28071;48.232;20.668;2023-05-09T19:17:23;100063.31;;;9.46;78.34
42433;BME280;28071;48.232;20.668;2023-05-09T19:22:23;100063.91;;;9.48;78.60
42433;BME280;28071;48.232;20.668;2023-05-09T19:27:23;100056.72;;;9.35;79.53
42433;BME280;28071;48.232;20.668;2023-05-09T19:32:24;100063.56;;;9.16;81.06
42433;BME280;28071;48.232;20.668;2023-05-09T19:37:24;100062.25;;;9.06;82.43
42433;BME280;28071;48.232;20.668;2023-05-09T19:42:25;100059.88;;;8.83;83.86
42433;BME280;28071;48.232;20.668;2023-05-09T19:47:26;100068.03;;;8.81;83.96
42433;BME280;28071;48.232;20.668;2023-05-09T19:52:26;100061.22;;;8.72;84.61
42433;BME280;28071;48.232;20.668;2023-05-09T19:57:28;100042.66;;;8.44;85.85
42433;BME280;28071;48.232;20.668;2023-05-09T20:02:29;100057.59;;;8.52;86.76
42433;BME280;28071;48.232;20.668;2023-05-09T20:07:30;100059.19;;;8.46;87.07
42433;BME280;28071;48.232;20.668;2023-05-09T20:12:31;100055.53;;;8.26;88.49
42433;BME280;28071;48.232;20.668;2023-05-09T20:17:31;100060.63;;;8.06;89.18
42433;BME280;28071;48.232;20.668;2023-05-09T20:22:31;100046.84;;;7.74;91.32
42433;BME280;28071;48.232;20.668;2023-05-09T20:27:32;100051.41;;;7.81;91.10
42433;BME280;28071;48.232;20.668;2023-05-09T20:32:34;100050.66;;;7.87;91.13
42433;BME280;28071;48.232;20.668;2023-05-09T20:37:35;100044.25;;;7.60;93.07
42433;BME280;28071;48.232;20.668;2023-05-09T20:42:36;100050.28;;;7.54;92.81
42433;BME280;28071;48.232;20.668;2023-05-09T20:47:37;100059.06;;;7.39;93.78
42433;BME280;28071;48.232;20.668;2023-05-09T20:52:38;100052.03;;;7.32;94.52
42433;BME280;28071;48.232;20.668;2023-05-09T20:57:39;100053.94;;;7.38;94.38
42433;BME280;28071;48.232;20.668;2023-05-09T21:02:39;100051.19;;;7.46;94.29
42433;BME280;28071;48.232;20.668;2023-05-09T21:07:40;100048.47;;;7.39;95.45
42433;BME280;28071;48.232;20.668;2023-05-09T21:12:40;100042.25;;;7.32;96.55
42433;BME280;28071;48.232;20.668;2023-05-09T21:17:40;100034.50;;;7.45;96.47
42433;BME280;28071;48.232;20.668;2023-05-09T21:22:41;100035.88;;;7.41;96.29
42433;BME280;28071;48.232;20.668;2023-05-09T21:27:42;100036.88;;;7.40;97.98
42433;BME280;28071;48.232;20.668;2023-05-09T21:32:42;100031.50;;;7.48;98.69
42433;BME280;28071;48.232;20.668;2023-05-09T21:37:44;100021.00;;;7.40;99.41
42433;BME280;28071;48.232;20.668;2023-05-09T21:42:45;100033.97;;;7.50;99.74
42433;BME280;28071;48.232;20.668;2023-05-09T21:47:46;100026.63;;;7.52;99.03
42433;BME280;28071;48.232;20.668;2023-05-09T21:52:46;100032.09;;;7.65;98.07
42433;BME280;28071;48.232;20.668;2023-05-09T21:57:47;100031.81;;;7.60;97.23
42433;BME280;28071;48.232;20.668;2023-05-09T22:02:47;100029.28;;;7.52;97.95
42433;BME280;28071;48.232;20.668;2023-05-09T22:07:48;100017.81;;;7.45;97.76
42433;BME280;28071;48.232;20.668;2023-05-09T22:12:49;100025.91;;;7.58;98.00
42433;BME280;28071;48.232;20.668;2023-05-09T22:17:50;100028.16;;;7.61;97.06
42433;BME280;28071;48.232;20.668;2023-05-09T22:22:50;100022.75;;;7.69;98.11
42433;BME280;28071;48.232;20.668;2023-05-09T22:27:50;100028.88;;;7.70;98.25
42433;BME280;28071;48.232;20.668;2023-05-09T22:32:51;100020.31;;;7.68;98.63
42433;BME280;28071;48.232;20.668;2023-05-09T22:37:51;100010.72;;;7.67;98.90
42433;BME280;28071;48.232;20.668;2023-05-09T22:42:52;100007.13;;;7.74;99.50
42433;BME280;28071;48.232;20.668;2023-05-09T22:47:55;99972.06;;;7.51;98.88
42433;BME280;28071;48.232;20.668;2023-05-09T22:52:56;100007.34;;;7.73;97.78
42433;BME280;28071;48.232;20.668;2023-05-09T22:57:57;100009.97;;;7.73;98.11
42433;BME280;28071;48.232;20.668;2023-05-09T23:02:57;100012.00;;;7.71;97.07
42433;BME280;28071;48.232;20.668;2023-05-09T23:08:18;100012.13;;;7.84;97.61
42433;BME280;28071;48.232;20.668;2023-05-09T23:13:42;100004.00;;;7.64;96.92
42433;BME280;28071;48.232;20.668;2023-05-09T23:18:42;100002.41;;;7.70;96.00
42433;BME280;28071;48.232;20.668;2023-05-09T23:23:43;99998.84;;;7.63;97.04
42433;BME280;28071;48.232;20.668;2023-05-09T23:28:43;99990.47;;;7.59;97.25
42433;BME280;28071;48.232;20.668;2023-05-09T23:33:44;99986.56;;;7.55;96.68
42433;BME280;28071;48.232;20.668;2023-05-09T23:38:44;99981.13;;;7.42;97.11
42433;BME280;28071;48.232;20.668;2023-05-09T23:43:44;99989.25;;;7.40;96.65
42433;BME280;28071;48.232;20.668;2023-05-09T23:48:45;99986.78;;;7.39;97.53
42433;BME280;28071;48.232;20.668;2023-05-09T23:53:45;99989.16;;;7.48;97.47
42433;BME280;28071;48.232;20.668;2023-05-09T23:58:46;99977.09;;;7.46;97.54
